• Join FlightAware (Why Join?)
  • Login
  • US Flag 
07:53AM EDT


 

Airport Tracker/Info


-or-


 

Live Flight TrackerFlight Track Log ✈ RPA3242 ✈ 18-Jul-2013 ✈ KDTW - KPHL

Flight Track Log - Related Links

Times and Time Zones

All times are in EDT time to prevent confusion due to time zone crossing. See the RPA3242 flight status page for this flight to view local times or setup timezone preferences in your user account.

Time Position Orientation Groundspeed Altitude Reporting Facility
EDT Latitude Longitude Course Direction KTS MPH feet Rate Location/Type
06:22PM 42.2017 -83.3583 90° East 148 170 1,200  Level Cleveland Center
06:22PM 42.1781 -83.3794 214° Southwest 177 204 2,200 1,380 Climbing Cleveland Center
06:23PM 42.1250 -83.4164 207° Southwest 251 289 3,500 2,340 Climbing Cleveland Center
06:24PM 42.2167 -82.9854 90° East  Level FlightAware Approximate
06:24PM 42.0569 -83.4722 211° Southwest 262 302 7,000  Level Cleveland Center
06:25PM 42.2167 -82.8622 90° East  Level FlightAware Approximate
06:25PM 41.9889 -83.4439 163° South 299 344 9,000  Level Cleveland Center
06:26PM 42.2167 -82.7390 90° East  Level FlightAware Approximate
06:26PM 41.9472 -83.3583 123° Southeast 298 343 9,000  Level Cleveland Center
06:27PM 42.2167 -82.6159 90° East  Level FlightAware Approximate
06:27PM 41.9053 -83.2811 126° Southeast 322 371 9,000  Level Cleveland Center
06:28PM 41.9097 -83.1781 87° East 287 330 10,000 480 Climbing Cleveland Center
06:29PM 41.9558 -83.0711 60° Northeast 274 315 10,000 120 Level Cleveland Center
06:30PM 42.0019 -82.9667 59° Northeast 293 337 10,300 1,320 Climbing Cleveland Center
06:31PM 42.0481 -82.8536 61° Northeast 315 362 12,700 2,280 Climbing Cleveland Center
06:32PM 42.0961 -82.7406 60° Northeast 328 377 14,900 2,040 Climbing Cleveland Center
06:33PM 42.1481 -82.6247 59° Northeast 341 392 16,800 1,800 Climbing Cleveland Center
06:34PM 42.1775 -82.4914 73° East 354 407 18,600 1,800 Climbing Cleveland Center
06:35PM 42.1297 -82.3611 116° Southeast 349 402 20,400 1,680 Climbing Cleveland Center
06:36PM 42.0647 -82.2361 125° Southeast 356 410 22,000 1,500 Climbing Cleveland Center
06:37PM 42.0100 -82.1231 123° Southeast 388 447 23,500 1,380 Climbing Cleveland Center
06:38PM 41.9431 -81.9928 125° Southeast 412 474 24,800 1,380 Climbing Cleveland Center
06:39PM 41.8778 -81.8658 125° Southeast 418 481 26,300 1,440 Climbing Cleveland Center
06:40PM 41.8042 -81.7197 124° Southeast 425 489 27,700 1,260 Climbing Cleveland Center
06:41PM 41.7367 -81.5906 125° Southeast 433 498 28,900 1,200 Climbing Cleveland Center
06:42PM 41.6689 -81.4589 125° Southeast 433 498 30,200 1,200 Climbing Cleveland Center
06:43PM 41.6011 -81.3272 125° Southeast 428 493 31,300 1,140 Climbing Cleveland Center
06:44PM 41.5331 -81.1961 125° Southeast 428 493 32,500 1,200 Climbing Cleveland Center
06:45PM 41.4564 -81.0792 131° Southeast 428 493 33,800 1,140 Climbing Cleveland Center
06:46PM 41.3861 -80.9789 133° Southeast 413 475 34,800 600 Climbing Cleveland Center
06:47PM 41.3072 -80.8733 135° Southeast 406 467 35,000 60 Climbing Cleveland Center
06:48PM 41.2303 -80.7653 133° Southeast 406 467 35,000  Level Cleveland Center
06:49PM 41.1469 -80.6492 134° Southeast 412 474 35,000  Level Cleveland Center
06:50PM 41.0594 -80.5281 134° Southeast 412 474 35,000  Level Cleveland Center
06:51PM 40.9739 -80.4125 134° Southeast 422 486 35,000  Level Cleveland Center
06:52PM 40.8881 -80.2947 134° Southeast 434 499 35,000  Level Cleveland Center
06:53PM 40.8106 -80.1717 130° Southeast 439 505 35,000  Level Cleveland Center
06:54PM 40.7558 -80.0294 117° Southeast 432 497 35,000  Level Cleveland Center
06:55PM 40.7050 -79.8736 113° Southeast 437 503 35,000  Level Cleveland Center
06:56PM 40.6519 -79.7292 116° Southeast 443 510 35,000  Level Cleveland Center
06:57PM 40.5964 -79.5850 117° Southeast 443 510 35,000 -540 Level Cleveland Center
06:58PM 40.5431 -79.4356 115° Southeast 443 510 34,000 -540 Descending Cleveland Center
06:59PM 40.5000 -79.3189 116° Southeast 443 510 34,000  Level Cleveland Center
07:00PM 40.4314 -79.1456 117° Southeast 443 510 34,000 -240 Level Cleveland Center
07:01PM 40.3836 -79.0131 115° Southeast 449 517 33,600 -540 Descending Cleveland Center
07:02PM 40.3272 -78.8672 117° Southeast 443 510 33,000 -840 Descending Cleveland Center
07:03PM 40.3144 -78.7044 96° East 437 503 32,000 -1,380 Descending Cleveland Center
07:04PM 40.3136 -78.5383 90° East 442 509 30,300 -1,740 Descending Cleveland Center
07:05PM 40.3147 -78.3694 89° East 447 514 28,600 -1,680 Descending Cleveland Center
07:07PM 40.3044 -78.0058 92° East 461 531 25,000 -1,140 Descending New York Center
07:08PM 40.3103 -77.8431 87° East 461 531 25,000 -420 Level New York Center
07:10PM 40.3117 -77.6769 89° East 461 531 24,200 -900 Descending New York Center
07:11PM 40.3083 -77.5189 92° East 456 525 23,300 -960 Descending New York Center
07:11PM 40.3058 -77.3389 91° East 456 525 22,300 -900 Descending New York Center
07:12PM 40.3031 -77.1997 91° East 444 511 21,600 -780 Descending New York Center
07:14PM 40.2931 -77.0408 95° East 439 505 20,800 -900 Descending New York Center
07:14PM 40.2592 -76.8908 106° East 432 497 19,900 -900 Descending New York Center
07:15PM 40.2247 -76.7464 107° East 420 483 19,100 -1,140 Descending New York Center
07:16PM 40.1889 -76.5886 107° East 420 483 17,700 -1,560 Descending New York Center
07:17PM 40.1561 -76.4472 107° East 407 468 16,000 -1,620 Descending New York Center
07:19PM 40.1253 -76.3089 106° East 402 463 14,500 -1,440 Descending New York Center
07:20PM 40.1139 -76.1967 98° East 367 422 13,100 -1,560 Descending New York Center
07:20PM 40.1053 -76.0658 95° East 335 386 11,500 -1,440 Descending New York Center
07:22PM 40.0975 -75.9539 95° East 316 364 10,300 -1,200 Descending New York Center
07:22PM 40.0878 -75.8447 97° East 310 357 9,100 -1,200 Descending New York Center
07:24PM 40.0814 -75.7492 95° East 298 343 8,000 -1,200 Descending New York Center
07:25PM 40.0739 -75.6319 95° East 293 337 6,700 -1,020 Descending New York Center
07:25PM 40.0694 -75.5367 93° East 293 337 6,000 -360 Descending New York Center
07:26PM 40.0656 -75.4253 93° East 293 337 6,000  Level New York Center
07:27PM 40.0608 -75.3300 94° East 293 337 6,000  Level New York Center
07:29PM 40.0419 -75.2283 104° East 293 337 6,000  Level New York Center
07:29PM 40.0078 -75.1367 116° Southeast 270 311 6,000 -480 Level New York Center
07:31PM 40.0000 -75.0500 97° East 195 224 4,900 -1,080 Descending Philadelphia TRACON
07:32PM 39.9667 -75.0000 131° Southeast 193 222 3,500 -1,320 Descending Philadelphia TRACON
07:33PM 39.9333 -75.0000 180° South 178 205 2,200 -1,320 Descending Philadelphia TRACON